Airfield :
LOGIN :

Register | Disclaimer

   EN    FR    IT 

 










Legend :    VFR   Marginal VFR   IFR   Intensive IFR   Very Intensive IFR
Visi :
Ceiling :
>= 8 km
>= 3000ft
5 to 8 km
1000 to 3000 ft
1500m to 5 km
500 to 1000 ft
800 to 1500m
200 to 500 ft
< 800m
< 200 ft
Symbols :   Thunderstorms  Fog  Heavy snow  Heavy precipitations  Wind > 20 kt
SIGMETs :     Misc.  Thunderstorms  Icing  Turbulence  Mountain Waves  Volcanic Ashes






- Airport Elevation : 124 ft
- IATA code : NHT


EGWU - RAF Northolt

CURRENT METAR :
  • 071550Z 29007KT CAVOK 13/M00 Q1016 NOSIG RMK BLU BLU

EXPIRED METARs :
  • 071520Z 28010KT CAVOK 13/00 Q1016 NOSIG RMK BLU BLU
  • 071450Z 24009KT CAVOK 13/M01 Q1016 NOSIG RMK BLU BLU
  • 071420Z 25009KT CAVOK 14/M00 Q1016 NOSIG RMK BLU BLU
  • 071350Z 28009KT CAVOK 13/00 Q1017 NOSIG RMK BLU BLU
  • 071320Z 27011KT CAVOK 13/M00 Q1017 NOSIG RMK BLU BLU

TAF TAF EGWU
Valid from the 07 at 15:00 until the 08 at 09:00 UTC


071337Z 0715/0809 24010KT CAVOK
BECMG 0804/0807 -RA BKN010
TEMPO 0804/0809 4000 RA
PROB40
TEMPO 0804/0809 3000 RADZ



MET'MAP, your aeronautical weather chart ! - Copyright ORBIFLY December 2007 - Disclaimer

ORBIFLY MET'MAP TEAM :

Programming & Development : Alexandra Zaïnal
Concept & original design : Baudouin d'Aumeries
Assistance for programming : Marc-Olivier Méhu
Technical & hardware support : Manuel Goepfert

Contact : metmap@orbifly.com




SOURCES & CREDITS :

   NOAA